createdAt,value
2018-07-21T00:00:56.059Z,94.80
2018-07-21T00:03:24.634Z,95.10
2018-07-21T00:05:52.993Z,94.80
2018-07-21T00:08:21.266Z,94.70
2018-07-21T00:10:52.229Z,94.70
2018-07-21T00:13:34.609Z,94.60
2018-07-21T00:16:06.101Z,94.60
2018-07-21T00:18:44.884Z,94.60
2018-07-21T00:21:19.958Z,94.60
2018-07-21T00:23:50.313Z,94.50
2018-07-21T00:26:20.739Z,94.50
2018-07-21T00:28:49.189Z,94.50
2018-07-21T00:31:17.910Z,94.50
2018-07-21T00:33:52.075Z,94.50
2018-07-21T00:36:20.228Z,94.50
2018-07-21T00:38:54.893Z,94.50
2018-07-21T00:41:23.132Z,94.50
2018-07-21T00:43:56.159Z,94.50
2018-07-21T00:46:26.434Z,94.50
2018-07-21T00:48:54.606Z,94.50
2018-07-21T00:51:29.240Z,94.50
2018-07-21T00:53:57.430Z,94.50
2018-07-21T00:56:28.346Z,94.50
2018-07-21T00:58:56.563Z,94.50
2018-07-21T01:01:29.912Z,94.60
2018-07-21T01:04:09.926Z,94.50
2018-07-21T01:06:40.291Z,94.50
2018-07-21T01:09:10.060Z,94.50
2018-07-21T01:11:52.134Z,94.50
2018-07-21T01:14:21.117Z,94.50
2018-07-21T01:16:56.472Z,94.50
2018-07-21T01:19:31.299Z,94.40
2018-07-21T01:21:59.534Z,94.40
2018-07-21T01:24:30.695Z,94.30
2018-07-21T01:29:43.870Z,94.20
2018-07-21T01:32:18.140Z,94.20
2018-07-21T01:34:52.765Z,94.20
2018-07-21T01:37:26.777Z,94.20
2018-07-21T01:39:59.244Z,94.20
2018-07-21T01:42:29.489Z,94.30
2018-07-21T01:44:57.649Z,94.50
2018-07-21T01:47:30.044Z,94.50
2018-07-21T01:50:05.558Z,94.60
2018-07-21T01:52:40.359Z,94.70
2018-07-21T01:55:08.658Z,94.80
2018-07-21T01:57:36.961Z,94.80
2018-07-21T02:00:11.557Z,94.80
2018-07-21T02:02:44.642Z,94.90
2018-07-21T02:05:17.787Z,94.90
2018-07-21T02:07:45.935Z,95.00
2018-07-21T02:10:19.133Z,95.10
2018-07-21T02:12:51.605Z,95.10
2018-07-21T02:15:23.118Z,95.20
2018-07-21T02:17:57.721Z,95.30
2018-07-21T02:20:37.678Z,95.30
2018-07-21T02:23:11.959Z,95.40
2018-07-21T02:25:42.467Z,95.40
2018-07-21T02:28:10.801Z,95.30
2018-07-21T02:30:39.025Z,95.50
2018-07-21T02:33:15.147Z,95.50
2018-07-21T02:35:46.458Z,95.50
2018-07-21T02:38:16.928Z,95.50
2018-07-21T02:40:47.129Z,95.60
2018-07-21T02:45:50.385Z,95.40
2018-07-21T02:48:20.923Z,95.40
2018-07-21T02:51:00.441Z,95.70
2018-07-21T02:53:31.601Z,95.70
2018-07-21T02:56:00.009Z,95.70
2018-07-21T02:58:28.240Z,95.80
2018-07-21T03:01:05.993Z,95.80
2018-07-21T03:03:36.366Z,95.80
2018-07-21T03:06:04.554Z,95.70
2018-07-21T03:08:37.795Z,95.80
2018-07-21T03:11:10.856Z,95.90
2018-07-21T03:13:39.421Z,95.90
2018-07-21T03:16:09.630Z,95.90
2018-07-21T03:18:37.775Z,95.90
2018-07-21T03:21:09.257Z,96.00
2018-07-21T03:23:40.178Z,96.00
2018-07-21T03:26:08.766Z,96.00
2018-07-21T03:28:37.042Z,96.00
2018-07-21T03:31:05.200Z,96.10
2018-07-21T03:33:45.131Z,96.00
2018-07-21T03:36:13.398Z,96.10
2018-07-21T03:38:41.590Z,96.10
2018-07-21T03:41:21.440Z,96.10
2018-07-21T03:43:49.849Z,96.10
2018-07-21T03:46:18.096Z,96.10
2018-07-21T03:48:57.824Z,96.10
2018-07-21T03:51:26.026Z,96.10
2018-07-21T03:53:57.379Z,96.20
2018-07-21T03:56:28.527Z,96.20
2018-07-21T03:58:59.661Z,96.20
2018-07-21T04:01:27.961Z,96.20
2018-07-21T04:04:00.931Z,96.20
2018-07-21T04:06:31.485Z,96.30
2018-07-21T04:09:02.323Z,96.30
2018-07-21T04:11:37.557Z,96.30
2018-07-21T04:14:17.433Z,96.20
2018-07-21T04:16:45.547Z,96.20
2018-07-21T04:19:16.786Z,96.30
2018-07-21T04:21:48.224Z,96.30
2018-07-21T04:24:33.634Z,96.30
2018-07-21T04:27:06.917Z,96.30
2018-07-21T04:29:38.397Z,96.30
2018-07-21T04:32:06.623Z,96.40
2018-07-21T04:34:34.855Z,96.30
2018-07-21T04:37:05.962Z,96.40
2018-07-21T04:39:46.661Z,96.30
2018-07-21T04:42:19.708Z,96.40
2018-07-21T04:44:49.993Z,96.30
2018-07-21T04:47:18.214Z,96.30
2018-07-21T04:49:52.945Z,96.20
2018-07-21T04:52:21.128Z,96.30
2018-07-21T04:54:51.404Z,96.30
2018-07-21T04:57:22.604Z,96.20
2018-07-21T04:59:53.832Z,96.20
2018-07-21T05:02:22.002Z,96.30
2018-07-21T05:04:56.565Z,96.30
2018-07-21T05:07:28.869Z,96.20
2018-07-21T05:10:03.527Z,96.30
2018-07-21T05:12:31.676Z,96.30
2018-07-21T05:15:02.735Z,96.20
2018-07-21T05:17:30.915Z,96.30
2018-07-21T05:20:04.183Z,96.30
2018-07-21T05:22:46.764Z,96.30
2018-07-21T05:27:47.133Z,96.30
2018-07-21T05:30:17.510Z,96.40
2018-07-21T05:32:45.665Z,96.40
2018-07-21T05:35:19.527Z,96.40
2018-07-21T05:37:49.819Z,96.40
2018-07-21T05:40:17.940Z,96.40
2018-07-21T05:42:52.483Z,96.40
2018-07-21T05:45:30.071Z,96.40
2018-07-21T05:47:58.300Z,96.40
2018-07-21T05:52:54.468Z,96.50
2018-07-21T05:55:25.434Z,96.60
2018-07-21T05:57:55.973Z,96.60
2018-07-21T06:00:34.399Z,96.50
2018-07-21T06:03:15.068Z,96.50
2018-07-21T06:05:48.152Z,96.50
2018-07-21T06:08:20.574Z,96.40
2018-07-21T06:10:59.190Z,96.30
2018-07-21T06:13:36.152Z,96.30
2018-07-21T06:16:04.374Z,96.20
2018-07-21T06:18:39.038Z,96.20
2018-07-21T06:21:07.327Z,96.20
2018-07-21T06:23:40.849Z,96.20
2018-07-21T06:26:18.568Z,96.20
2018-07-21T06:28:46.822Z,96.20
2018-07-21T06:31:15.024Z,96.20
2018-07-21T06:33:45.958Z,96.20
2018-07-21T06:36:14.309Z,96.30
2018-07-21T06:38:42.718Z,96.20
2018-07-21T06:41:13.737Z,96.00
2018-07-21T06:43:53.879Z,96.00
2018-07-21T06:46:22.062Z,96.00
2018-07-21T06:48:53.042Z,96.00
2018-07-21T06:51:23.248Z,95.90
2018-07-21T06:53:51.417Z,96.00
2018-07-21T06:56:26.841Z,95.60
2018-07-21T06:59:00.123Z,95.60
2018-07-21T07:01:32.632Z,95.40
2018-07-21T07:04:15.451Z,95.30
2018-07-21T07:06:43.693Z,95.10
2018-07-21T07:09:16.681Z,95.00
2018-07-21T07:11:47.033Z,94.90
2018-07-21T07:14:17.553Z,94.90
2018-07-21T07:16:45.975Z,94.90
2018-07-21T07:19:14.138Z,94.80
2018-07-21T07:21:46.540Z,94.60
2018-07-21T07:24:23.458Z,94.30
2018-07-21T07:26:51.746Z,93.90
2018-07-21T07:29:20.051Z,93.80
2018-07-21T07:31:50.959Z,93.70
2018-07-21T07:34:21.128Z,93.50
2018-07-21T07:36:49.227Z,93.10
2018-07-21T07:39:20.498Z,93.00
2018-07-21T07:41:50.734Z,92.70
2018-07-21T07:44:18.881Z,92.60
2018-07-21T07:46:51.503Z,92.60
2018-07-21T07:49:19.638Z,92.50
2018-07-21T07:51:52.187Z,92.40
2018-07-21T07:54:23.149Z,92.20
2018-07-21T07:56:51.353Z,92.00
2018-07-21T07:59:21.714Z,92.00
2018-07-21T08:02:01.452Z,91.80
2018-07-21T08:04:29.571Z,91.70
2018-07-21T08:07:00.433Z,91.80
2018-07-21T08:09:28.575Z,91.60
2018-07-21T08:12:02.856Z,91.60
2018-07-21T08:14:35.345Z,91.60
2018-07-21T08:17:15.148Z,91.60
2018-07-21T08:19:43.314Z,91.40
2018-07-21T08:22:14.414Z,91.30
2018-07-21T08:24:44.689Z,91.30
2018-07-21T08:27:12.802Z,91.30
2018-07-21T08:29:43.975Z,90.90
2018-07-21T08:32:14.478Z,90.90
2018-07-21T08:34:46.943Z,90.70
2018-07-21T08:37:19.181Z,90.50
2018-07-21T08:39:47.369Z,90.50
2018-07-21T08:42:19.689Z,90.50
2018-07-21T08:44:54.941Z,90.20
2018-07-21T08:47:28.537Z,90.00
2018-07-21T08:50:01.024Z,90.20
2018-07-21T08:52:40.805Z,89.50
2018-07-21T08:55:08.940Z,89.20
2018-07-21T08:57:48.727Z,89.20
2018-07-21T09:00:16.943Z,88.60
2018-07-21T09:02:49.342Z,87.80
2018-07-21T09:05:26.921Z,87.60
2018-07-21T09:07:55.106Z,87.20
2018-07-21T09:10:30.620Z,87.20
2018-07-21T09:13:01.761Z,87.20
2018-07-21T09:15:34.090Z,87.20
2018-07-21T09:20:39.464Z,86.40
2018-07-21T09:23:13.753Z,85.90
2018-07-21T09:25:44.658Z,85.50
2018-07-21T09:28:12.910Z,85.50
2018-07-21T09:30:47.481Z,86.20
2018-07-21T09:33:19.804Z,85.50
2018-07-21T09:35:53.867Z,84.90
2018-07-21T09:38:24.048Z,84.30
2018-07-21T09:40:52.249Z,84.10
2018-07-21T09:43:23.353Z,83.50
2018-07-21T09:46:01.791Z,82.70
2018-07-21T09:48:32.878Z,82.20
2018-07-21T09:53:33.560Z,82.20
2018-07-21T09:56:07.904Z,81.80
2018-07-21T09:58:41.234Z,82.00
2018-07-21T10:01:13.761Z,81.20
2018-07-21T10:03:46.162Z,80.00
2018-07-21T10:06:19.750Z,80.80
2018-07-21T10:08:50.784Z,80.60
2018-07-21T10:11:19.181Z,80.70
2018-07-21T10:13:47.353Z,80.20
2018-07-21T10:18:55.272Z,79.10
2018-07-21T10:21:28.468Z,79.00
2018-07-21T10:25:03.766Z,78.90
2018-07-21T10:27:39.651Z,78.10
2018-07-21T10:30:12.831Z,77.70
2018-07-21T10:32:41.314Z,77.20
2018-07-21T10:35:09.626Z,77.50
2018-07-21T10:37:37.775Z,77.60
2018-07-21T10:40:12.450Z,76.70
2018-07-21T10:42:40.670Z,76.70
2018-07-21T10:45:20.468Z,76.60
2018-07-21T10:47:48.573Z,76.50
2018-07-21T10:50:20.781Z,77.00
2018-07-21T10:52:52.177Z,76.40
2018-07-21T10:55:23.350Z,76.10
2018-07-21T10:57:51.932Z,76.20
2018-07-21T11:00:20.100Z,76.30
2018-07-21T11:02:55.465Z,76.50
2018-07-21T11:08:05.046Z,77.30
2018-07-21T11:10:35.520Z,77.50
2018-07-21T11:13:13.709Z,76.50
2018-07-21T11:15:42.016Z,76.00
2018-07-21T11:18:10.211Z,76.00
2018-07-21T11:20:42.561Z,76.60
2018-07-21T11:23:17.629Z,77.00
2018-07-21T11:25:45.737Z,76.80
2018-07-21T11:28:23.276Z,76.90
2018-07-21T11:30:51.449Z,77.10
2018-07-21T11:33:22.370Z,77.10
2018-07-21T11:35:50.786Z,75.90
2018-07-21T11:38:21.553Z,75.60
2018-07-21T11:40:51.849Z,76.20
2018-07-21T11:43:19.973Z,75.60
2018-07-21T11:45:54.469Z,75.60
2018-07-21T11:48:29.149Z,76.10
2018-07-21T11:50:57.357Z,75.80
2018-07-21T11:53:31.929Z,74.80
2018-07-21T11:56:04.125Z,75.00
2018-07-21T11:58:35.186Z,74.80
2018-07-21T12:01:03.618Z,74.20
2018-07-21T12:03:31.812Z,74.30
2018-07-21T12:06:05.198Z,74.50
2018-07-21T12:08:47.187Z,73.90
2018-07-21T12:11:17.415Z,73.40
2018-07-21T12:13:45.649Z,73.20
2018-07-21T12:16:20.352Z,72.50
2018-07-21T12:18:48.551Z,72.80
2018-07-21T12:21:21.622Z,72.40
2018-07-21T12:26:22.327Z,71.80
2018-07-21T12:28:50.491Z,71.80
2018-07-21T12:31:28.321Z,72.00
2018-07-21T12:33:56.452Z,71.80
2018-07-21T12:36:28.864Z,71.40
2018-07-21T12:39:06.433Z,70.50
2018-07-21T12:41:34.582Z,70.00
2018-07-21T12:44:14.640Z,69.90
2018-07-21T12:46:44.886Z,69.40
2018-07-21T12:49:13.041Z,69.20
2018-07-21T12:51:44.108Z,69.80
2018-07-21T12:54:12.431Z,69.90
2018-07-21T12:59:12.890Z,69.00
2018-07-21T13:01:47.254Z,68.60
2018-07-21T13:04:17.468Z,67.90
2018-07-21T13:06:45.834Z,68.00
2018-07-21T13:09:14.033Z,67.10
2018-07-21T13:11:48.532Z,67.00
2018-07-21T13:14:21.831Z,67.40
2018-07-21T13:16:56.380Z,66.90
2018-07-21T13:19:27.710Z,67.20
2018-07-21T13:22:03.020Z,67.10
2018-07-21T13:24:36.246Z,66.90
2018-07-21T13:27:07.294Z,67.30
2018-07-21T13:29:40.495Z,68.40
2018-07-21T13:32:13.226Z,69.00
2018-07-21T13:34:41.420Z,69.70
2018-07-21T13:37:22.061Z,69.60
2018-07-21T13:39:58.139Z,69.30
2018-07-21T13:42:34.085Z,69.70
2018-07-21T13:45:02.273Z,69.70
2018-07-21T13:47:38.937Z,70.00
2018-07-21T13:50:07.134Z,71.00
2018-07-21T13:52:49.155Z,70.60
2018-07-21T13:55:19.956Z,70.50
2018-07-21T13:57:52.636Z,70.30
2018-07-21T14:00:25.873Z,70.60
2018-07-21T14:03:05.816Z,70.50
2018-07-21T14:05:33.958Z,70.50
2018-07-21T14:08:07.058Z,71.00
2018-07-21T14:10:37.943Z,70.70
2018-07-21T14:13:06.177Z,71.00
2018-07-21T14:15:41.748Z,71.10
2018-07-21T14:18:16.347Z,71.10
2018-07-21T14:20:44.497Z,70.90
2018-07-21T14:23:15.416Z,69.60
2018-07-21T14:25:43.713Z,70.50
2018-07-21T14:30:50.521Z,71.20
2018-07-21T14:33:21.921Z,71.10
2018-07-21T14:36:01.989Z,71.10
2018-07-21T14:38:30.488Z,71.40
2018-07-21T14:41:00.685Z,71.90
2018-07-21T14:43:28.997Z,72.00
2018-07-21T14:46:08.812Z,72.30
2018-07-21T14:48:39.112Z,72.60
2018-07-21T14:51:07.312Z,73.90
2018-07-21T14:53:39.807Z,72.80
2018-07-21T14:56:10.734Z,72.90
2018-07-21T14:58:39.023Z,73.10
2018-07-21T15:01:07.239Z,73.20
2018-07-21T15:03:38.237Z,72.90
2018-07-21T15:06:08.432Z,72.90
2018-07-21T15:08:36.638Z,72.70
2018-07-21T15:11:11.406Z,72.80
2018-07-21T15:13:39.618Z,73.00
2018-07-21T15:16:14.396Z,73.00
2018-07-21T15:18:42.605Z,72.90
2018-07-21T15:21:16.313Z,72.70
2018-07-21T15:23:44.490Z,72.30
2018-07-21T15:26:19.463Z,72.60
2018-07-21T15:28:49.740Z,73.00
2018-07-21T15:31:18.102Z,73.40
2018-07-21T15:33:46.234Z,74.00
2018-07-21T15:36:17.148Z,74.60
2018-07-21T15:38:45.332Z,74.70
2018-07-21T15:41:21.970Z,75.30
2018-07-21T15:43:50.197Z,75.70
2018-07-21T15:46:23.128Z,74.90
2018-07-21T15:48:51.326Z,74.10
2018-07-21T15:51:21.397Z,73.50
2018-07-21T15:53:52.593Z,73.60
2018-07-21T15:56:20.746Z,73.00
2018-07-21T15:58:55.383Z,72.70
2018-07-21T16:01:23.683Z,71.60
2018-07-21T16:03:53.938Z,71.20
2018-07-21T16:06:33.661Z,70.50
2018-07-21T16:09:09.611Z,69.70
2018-07-21T16:11:49.453Z,69.40
2018-07-21T16:14:20.317Z,69.00
2018-07-21T16:16:48.544Z,68.40
2018-07-21T16:19:16.724Z,67.30
2018-07-21T16:21:51.577Z,66.50
2018-07-21T16:24:19.705Z,66.90
2018-07-21T16:26:55.790Z,67.20
2018-07-21T16:29:26.281Z,64.90
2018-07-21T16:32:04.791Z,64.10
2018-07-21T16:34:36.906Z,63.20
2018-07-21T16:37:05.285Z,62.50
2018-07-21T16:39:33.438Z,62.00
2018-07-21T16:42:08.062Z,62.20
2018-07-21T16:44:40.475Z,62.00
2018-07-21T16:47:13.230Z,61.40
2018-07-21T16:49:41.459Z,60.80
2018-07-21T16:52:12.305Z,60.70
2018-07-21T16:54:40.721Z,61.00
2018-07-21T16:57:08.886Z,60.60
2018-07-21T16:59:43.134Z,60.80
2018-07-21T17:02:16.340Z,60.60
2018-07-21T17:04:44.578Z,60.70
2018-07-21T17:07:12.516Z,60.70
2018-07-21T17:09:45.914Z,60.60
2018-07-21T17:12:23.812Z,60.80
2018-07-21T17:14:51.770Z,61.20
2018-07-21T17:17:21.779Z,61.90
2018-07-21T17:19:49.754Z,61.80
2018-07-21T17:22:19.726Z,61.70
2018-07-21T17:24:49.719Z,61.90
2018-07-21T17:27:20.166Z,62.70
2018-07-21T17:29:48.263Z,62.80
2018-07-21T17:32:19.079Z,63.20
2018-07-21T17:34:47.021Z,63.00
2018-07-21T17:37:19.435Z,63.50
2018-07-21T17:40:02.023Z,63.50
2018-07-21T17:42:39.765Z,63.70
2018-07-21T17:45:08.283Z,63.40
2018-07-21T17:47:36.766Z,63.60
2018-07-21T17:50:05.193Z,64.00
2018-07-21T17:52:33.717Z,63.80
2018-07-21T17:55:01.948Z,64.50
2018-07-21T17:57:32.934Z,64.60
2018-07-21T18:00:12.920Z,65.10
2018-07-21T18:02:41.061Z,65.50
2018-07-21T18:05:20.864Z,65.50
2018-07-21T18:07:49.389Z,66.00
2018-07-21T18:10:17.558Z,66.20
2018-07-21T18:12:57.397Z,66.70
2018-07-21T18:15:25.667Z,66.70
2018-07-21T18:17:53.860Z,67.50
2018-07-21T18:20:33.775Z,68.00
2018-07-21T18:23:02.101Z,68.70
2018-07-21T18:25:30.272Z,69.10
2018-07-21T18:28:05.719Z,69.10
2018-07-21T18:30:38.852Z,69.30
2018-07-21T18:33:10.020Z,69.20
2018-07-21T18:35:38.239Z,69.50
2018-07-21T18:38:11.679Z,69.60
2018-07-21T18:40:46.077Z,70.30
2018-07-21T18:45:42.689Z,71.00
2018-07-21T18:48:12.865Z,71.30
2018-07-21T18:50:41.522Z,71.60
2018-07-21T18:53:09.653Z,72.20
2018-07-21T18:55:42.186Z,72.50
2018-07-21T18:58:13.052Z,73.20
2018-07-21T19:00:43.309Z,73.60
2018-07-21T19:03:11.453Z,73.60
2018-07-21T19:05:42.626Z,73.50
2018-07-21T19:08:24.406Z,73.70
2018-07-21T19:10:55.672Z,74.00
2018-07-21T19:13:30.061Z,74.30
2018-07-21T19:16:41.113Z,74.70
2018-07-21T19:19:16.519Z,75.00
2018-07-21T19:21:47.545Z,76.10
2018-07-21T19:24:15.692Z,75.60
2018-07-21T19:26:54.378Z,76.00
2018-07-21T19:29:22.599Z,76.40
2018-07-21T19:32:00.628Z,76.80
2018-07-21T19:34:30.926Z,77.20
2018-07-21T19:36:59.099Z,77.70
2018-07-21T19:39:32.596Z,78.10
2018-07-21T19:42:03.947Z,78.70
2018-07-21T19:44:45.624Z,79.30
2018-07-21T19:47:13.890Z,79.60
2018-07-21T19:49:47.139Z,79.80
2018-07-21T19:52:22.482Z,80.20
2018-07-21T19:54:55.573Z,80.60
2018-07-21T19:57:23.692Z,81.20
2018-07-21T19:59:58.333Z,81.90
2018-07-21T20:02:26.593Z,82.50
2018-07-21T20:04:57.968Z,83.30
2018-07-21T20:07:33.213Z,84.10
2018-07-21T20:10:08.746Z,84.60
2018-07-21T20:12:41.925Z,85.30
2018-07-21T20:15:12.995Z,85.90
2018-07-21T20:17:45.310Z,86.80
2018-07-21T20:20:20.476Z,87.30
2018-07-21T20:23:02.475Z,88.10
2018-07-21T20:25:30.678Z,88.80
2018-07-21T20:28:01.580Z,89.50
2018-07-21T20:30:30.142Z,90.20
2018-07-21T20:33:00.395Z,90.50
2018-07-21T20:35:28.556Z,90.70
2018-07-21T20:38:04.070Z,90.90
2018-07-21T20:40:36.756Z,91.20
2018-07-21T20:43:04.945Z,91.60
2018-07-21T20:45:39.458Z,91.80
2018-07-21T20:48:12.887Z,92.10
2018-07-21T20:50:50.283Z,92.30
2018-07-21T20:53:25.823Z,92.80
2018-07-21T20:56:00.368Z,93.10
2018-07-21T20:58:28.536Z,93.30
2018-07-21T21:01:00.917Z,93.70
2018-07-21T21:03:31.996Z,94.00
2018-07-21T21:06:00.224Z,94.40
2018-07-21T21:08:31.174Z,94.60
2018-07-21T21:11:01.893Z,94.90
2018-07-21T21:13:34.277Z,95.10
2018-07-21T21:16:07.561Z,95.40
2018-07-21T21:18:38.057Z,95.60
2018-07-21T21:21:08.293Z,95.90
2018-07-21T21:23:36.469Z,96.10
2018-07-21T21:26:09.876Z,96.50
2018-07-21T21:28:44.376Z,96.70
2018-07-21T21:31:15.340Z,96.90
2018-07-21T21:33:46.476Z,97.10
2018-07-21T21:36:14.638Z,97.40
2018-07-21T21:38:45.629Z,97.70
2018-07-21T21:41:13.749Z,97.90
2018-07-21T21:43:48.325Z,98.10
2018-07-21T21:46:16.425Z,98.50
2018-07-21T21:48:47.866Z,98.70
2018-07-21T21:51:20.200Z,98.90
2018-07-21T21:53:50.393Z,99.20
2018-07-21T21:56:18.585Z,99.60
2018-07-21T21:58:56.715Z,99.90
2018-07-21T22:01:30.086Z,99.90
2018-07-21T22:04:10.830Z,99.90
2018-07-21T22:06:42.188Z,99.90
2018-07-21T22:09:13.124Z,99.90
2018-07-21T22:11:41.336Z,99.90
2018-07-21T22:14:17.266Z,99.90
2018-07-21T22:16:48.467Z,99.90
2018-07-21T22:19:16.686Z,99.90
2018-07-21T22:21:56.384Z,99.90
2018-07-21T22:24:24.561Z,99.90
2018-07-21T22:26:59.653Z,99.90
2018-07-21T22:29:38.235Z,99.90
2018-07-21T22:32:12.776Z,99.90
2018-07-21T22:34:45.853Z,99.90
2018-07-21T22:37:16.069Z,99.90
2018-07-21T22:39:44.278Z,99.90
2018-07-21T22:42:27.167Z,99.90
2018-07-21T22:44:57.419Z,99.90
2018-07-21T22:47:25.558Z,99.90
2018-07-21T22:50:01.121Z,99.90
2018-07-21T22:52:34.404Z,99.90
2018-07-21T22:55:08.950Z,99.90
2018-07-21T22:57:40.046Z,99.90
2018-07-21T23:00:12.511Z,99.90
2018-07-21T23:02:44.883Z,99.90
2018-07-21T23:05:13.249Z,99.90
2018-07-21T23:07:41.439Z,99.90
2018-07-21T23:10:16.926Z,99.90
2018-07-21T23:12:45.241Z,99.90
2018-07-21T23:15:18.265Z,99.90
2018-07-21T23:17:48.600Z,99.90
2018-07-21T23:20:16.761Z,99.90
2018-07-21T23:22:52.704Z,99.90
2018-07-21T23:25:23.836Z,99.90
2018-07-21T23:27:52.986Z,99.90
2018-07-21T23:30:27.497Z,99.90
2018-07-21T23:33:02.033Z,99.90
2018-07-21T23:35:38.847Z,99.90
2018-07-21T23:38:07.328Z,99.90
2018-07-21T23:40:35.642Z,99.90
2018-07-21T23:43:03.818Z,99.90
2018-07-21T23:45:41.641Z,99.90
2018-07-21T23:48:09.792Z,99.90
2018-07-21T23:50:40.890Z,99.90
2018-07-21T23:53:20.574Z,99.90
2018-07-21T23:55:51.620Z,99.90
2018-07-21T23:58:19.910Z,99.90
